EDW33CW LGKR-LSZH
Flight info
| Callsign | EDW33CW |
|---|---|
| Flight time | N/A |
| Altitude | 36000 |
| Route | OLGAT DCT AIOSA DCT BAXON DCT RESIA Z50 KELIP |
| Aircraft | A320/M-SDE3FGHIRWY/LB1 |
Departure
| Time | 2026-05-05 10:08 |
|---|---|
| Airport | Corfu Ioannis Kapodistrias International Airport (LGKR) |
Arrival
| Time | N/A |
|---|---|
| Airport | Zürich Airport (LSZH) |
| Time | Latitude | Longitude | Altitude | Speed | Heading |
|---|---|---|---|---|---|
| 2026-05-05 09:41 | 39.60668 | 19.91362 | 19 ft | 0 kts | 79° |
| 2026-05-05 10:01 | 39.60668 | 19.91361 | 18 ft | 2 kts | 79° |
| 2026-05-05 10:01 | 39.60663 | 19.91328 | 18 ft | 4 kts | 80° |
| 2026-05-05 10:01 | 39.60657 | 19.91295 | 18 ft | 4 kts | 60° |
| 2026-05-05 10:02 | 39.60645 | 19.91279 | 22 ft | 2 kts | 349° |
| 2026-05-05 10:02 | 39.60644 | 19.91279 | 22 ft | 0 kts | 349° |
| 2026-05-05 10:04 | 39.60645 | 19.91279 | 22 ft | 2 kts | 349° |
| 2026-05-05 10:04 | 39.60669 | 19.91273 | 21 ft | 5 kts | 349° |
| 2026-05-05 10:04 | 39.60736 | 19.91257 | 18 ft | 12 kts | 349° |
| 2026-05-05 10:04 | 39.60826 | 19.91231 | 18 ft | 14 kts | 340° |
| 2026-05-05 10:05 | 39.60917 | 19.91162 | 19 ft | 15 kts | 341° |
| 2026-05-05 10:05 | 39.61031 | 19.91130 | 19 ft | 18 kts | 348° |
| 2026-05-05 10:05 | 39.61154 | 19.91096 | 20 ft | 11 kts | 348° |
| 2026-05-05 10:05 | 39.61162 | 19.91094 | 19 ft | 0 kts | 348° |
| 2026-05-05 10:06 | 39.61177 | 19.91090 | 19 ft | 6 kts | 348° |
| 2026-05-05 10:06 | 39.61223 | 19.91030 | 20 ft | 11 kts | 298° |
| 2026-05-05 10:06 | 39.61229 | 19.90954 | 22 ft | 8 kts | 223° |
| 2026-05-05 10:07 | 39.61197 | 19.90954 | 21 ft | 0 kts | 168° |
| 2026-05-05 10:07 | 39.61122 | 19.90973 | 21 ft | 43 kts | 168° |
| 2026-05-05 10:07 | 39.60584 | 19.91112 | 18 ft | 112 kts | 169° |
| 2026-05-05 10:07 | 39.59653 | 19.91355 | 138 ft | 150 kts | 167° |
| 2026-05-05 10:08 | 39.58679 | 19.91668 | 753 ft | 149 kts | 149° |
| 2026-05-05 10:08 | 39.57961 | 19.92604 | 1433 ft | 146 kts | 130° |
| 2026-05-05 10:08 | 39.57176 | 19.93599 | 1711 ft | 175 kts | 141° |
| 2026-05-05 10:08 | 39.56147 | 19.94703 | 1971 ft | 205 kts | 142° |
| 2026-05-05 10:09 | 39.55017 | 19.95902 | 2668 ft | 213 kts | 142° |
| 2026-05-05 10:09 | 39.53853 | 19.97141 | 3401 ft | 219 kts | 141° |
| 2026-05-05 10:09 | 39.52669 | 19.98409 | 4175 ft | 222 kts | 142° |
| 2026-05-05 10:09 | 39.51471 | 19.99691 | 5006 ft | 224 kts | 142° |
| 2026-05-05 10:10 | 39.50261 | 20.00985 | 5811 ft | 226 kts | 142° |
| 2026-05-05 10:10 | 39.49039 | 20.02291 | 6583 ft | 229 kts | 141° |
| 2026-05-05 10:10 | 39.47798 | 20.03616 | 7304 ft | 233 kts | 140° |
| 2026-05-05 10:10 | 39.46535 | 20.04965 | 8018 ft | 238 kts | 139° |
| 2026-05-05 10:11 | 39.45251 | 20.06339 | 8741 ft | 242 kts | 139° |
| 2026-05-05 10:11 | 39.43982 | 20.07744 | 9447 ft | 248 kts | 132° |
| 2026-05-05 10:11 | 39.43149 | 20.09737 | 9869 ft | 260 kts | 98° |
| 2026-05-05 10:11 | 39.43234 | 20.12066 | 10493 ft | 263 kts | 69° |
| 2026-05-05 10:12 | 39.44176 | 20.14067 | 11182 ft | 263 kts | 41° |
| 2026-05-05 10:12 | 39.45746 | 20.15219 | 11933 ft | 262 kts | 12° |
| 2026-05-05 10:12 | 39.46971 | 20.15353 | 12450 ft | 263 kts | 353° |
| 2026-05-05 10:12 | 39.48680 | 20.14541 | 13214 ft | 267 kts | 325° |
| 2026-05-05 10:13 | 39.49912 | 20.12731 | 13985 ft | 272 kts | 305° |
| 2026-05-05 10:13 | 39.50962 | 20.10624 | 14256 ft | 293 kts | 304° |
| 2026-05-05 10:13 | 39.52101 | 20.08310 | 14409 ft | 316 kts | 304° |
| 2026-05-05 10:13 | 39.53323 | 20.05824 | 14535 ft | 338 kts | 304° |
| 2026-05-05 10:14 | 39.54628 | 20.03171 | 14657 ft | 359 kts | 304° |
| 2026-05-05 10:14 | 39.56009 | 20.00370 | 14783 ft | 378 kts | 304° |
| 2026-05-05 10:14 | 39.57449 | 19.97459 | 15132 ft | 387 kts | 306° |
| 2026-05-05 10:14 | 39.59210 | 19.94810 | 15673 ft | 390 kts | 316° |
| 2026-05-05 10:15 | 39.61148 | 19.92330 | 16254 ft | 393 kts | 316° |
| 2026-05-05 10:15 | 39.63070 | 19.89783 | 16831 ft | 396 kts | 314° |
| 2026-05-05 10:15 | 39.64947 | 19.87145 | 17411 ft | 399 kts | 313° |
| 2026-05-05 10:15 | 39.66778 | 19.84478 | 17969 ft | 402 kts | 312° |
| 2026-05-05 10:16 | 39.68636 | 19.81737 | 18508 ft | 405 kts | 312° |
| 2026-05-05 10:16 | 39.70501 | 19.78987 | 18982 ft | 407 kts | 312° |
| 2026-05-05 10:16 | 39.72382 | 19.76231 | 19498 ft | 408 kts | 312° |
| 2026-05-05 10:16 | 39.74276 | 19.73478 | 19988 ft | 409 kts | 312° |
| 2026-05-05 10:17 | 39.76179 | 19.70728 | 20459 ft | 410 kts | 313° |
| 2026-05-05 10:17 | 39.78091 | 19.67968 | 20917 ft | 411 kts | 313° |
| 2026-05-05 10:17 | 39.80007 | 19.65208 | 21359 ft | 412 kts | 313° |
| 2026-05-05 10:17 | 39.81929 | 19.62434 | 21783 ft | 413 kts | 313° |
| 2026-05-05 10:18 | 39.83851 | 19.59654 | 22198 ft | 414 kts | 313° |
| 2026-05-05 10:18 | 39.85779 | 19.56857 | 22602 ft | 415 kts | 313° |
| 2026-05-05 10:18 | 39.87708 | 19.54055 | 22995 ft | 416 kts | 313° |
| 2026-05-05 10:18 | 39.89643 | 19.51238 | 23384 ft | 418 kts | 313° |
| 2026-05-05 10:19 | 39.91579 | 19.48409 | 23739 ft | 419 kts | 312° |
| 2026-05-05 10:19 | 39.93524 | 19.45559 | 24028 ft | 421 kts | 312° |
| 2026-05-05 10:19 | 39.95473 | 19.42705 | 24321 ft | 422 kts | 312° |
| 2026-05-05 10:19 | 39.97426 | 19.39845 | 24601 ft | 423 kts | 312° |
| 2026-05-05 10:20 | 39.98723 | 19.37950 | 24785 ft | 423 kts | 312° |